createdAt,value
2023-05-01T00:01:54.154Z,12.00
2023-05-01T00:04:23.511Z,11.90
2023-05-01T00:06:51.872Z,11.80
2023-05-01T00:09:20.034Z,11.80
2023-05-01T00:11:48.097Z,11.80
2023-05-01T00:14:16.215Z,11.80
2023-05-01T00:16:44.357Z,11.80
2023-05-01T00:19:18.315Z,11.70
2023-05-01T00:21:47.957Z,11.70
2023-05-01T00:24:16.640Z,11.70
2023-05-01T00:26:45.068Z,11.70
2023-05-01T00:29:15.362Z,11.60
2023-05-01T00:31:43.484Z,11.60
2023-05-01T00:34:13.195Z,11.60
2023-05-01T00:36:41.375Z,11.60
2023-05-01T00:39:09.881Z,11.60
2023-05-01T00:41:38.032Z,11.60
2023-05-01T00:44:06.463Z,11.60
2023-05-01T00:46:35.758Z,11.60
2023-05-01T00:49:04.008Z,11.60
2023-05-01T00:51:34.216Z,11.50
2023-05-01T00:54:02.722Z,11.50
2023-05-01T00:56:31.863Z,11.40
2023-05-01T00:59:01.176Z,11.40
2023-05-01T01:01:29.744Z,11.30
2023-05-01T01:03:57.948Z,11.30
2023-05-01T01:06:34.500Z,11.30
2023-05-01T01:09:18.833Z,11.20
2023-05-01T01:11:57.545Z,11.20
2023-05-01T01:14:33.238Z,11.20
2023-05-01T01:32:57.966Z,11.20
2023-05-01T01:35:29.059Z,11.10
2023-05-01T01:38:04.477Z,11.10
2023-05-01T01:40:38.201Z,11.10
2023-05-01T01:43:08.911Z,11.00
2023-05-01T01:45:41.261Z,10.90
2023-05-01T01:48:12.103Z,10.90
2023-05-01T01:50:43.427Z,10.90
2023-05-01T01:53:15.333Z,10.80
2023-05-01T01:55:45.910Z,10.80
2023-05-01T01:58:17.044Z,10.70
2023-05-01T02:00:46.369Z,10.90
2023-05-01T02:03:15.973Z,11.00
2023-05-01T02:05:47.243Z,10.90
2023-05-01T02:08:17.630Z,10.90
2023-05-01T02:10:46.677Z,10.80
2023-05-01T02:13:15.787Z,10.70
2023-05-01T02:15:45.374Z,10.70
2023-05-01T02:18:15.835Z,10.60
2023-05-01T02:20:45.867Z,10.60
2023-05-01T02:23:14.934Z,10.50
2023-05-01T02:25:44.561Z,10.50
2023-05-01T02:28:14.563Z,10.40
2023-05-01T02:30:42.717Z,10.50
2023-05-01T02:33:10.976Z,10.40
2023-05-01T02:35:44.065Z,10.40
2023-05-01T02:38:15.005Z,10.40
2023-05-01T02:40:47.730Z,10.40
2023-05-01T02:43:19.661Z,10.40
2023-05-01T02:45:49.246Z,10.40
2023-05-01T02:48:21.556Z,10.40
2023-05-01T02:50:50.547Z,10.40
2023-05-01T02:53:20.568Z,10.40
2023-05-01T02:55:48.718Z,10.40
2023-05-01T02:58:17.250Z,10.40
2023-05-01T03:06:06.344Z,10.40
2023-05-01T03:08:36.586Z,10.30
2023-05-01T03:11:06.890Z,10.30
2023-05-01T03:13:35.061Z,10.30
2023-05-01T03:19:56.393Z,10.40
2023-05-01T03:22:24.692Z,10.40
2023-05-01T03:24:54.120Z,10.40
2023-05-01T03:35:38.099Z,10.40
2023-05-01T03:38:06.243Z,10.30
2023-05-01T03:48:17.579Z,10.20
2023-05-01T03:50:46.003Z,10.20
2023-05-01T03:53:14.651Z,10.20
2023-05-01T03:55:42.777Z,10.10
2023-05-01T03:58:11.608Z,10.10
2023-05-01T04:00:40.094Z,10.10
2023-05-01T04:03:08.373Z,10.10
2023-05-01T04:05:38.047Z,10.10
2023-05-01T04:08:07.206Z,10.10
2023-05-01T04:10:36.110Z,10.10
2023-05-01T04:13:04.885Z,10.10
2023-05-01T04:15:32.989Z,10.10
2023-05-01T04:18:01.620Z,10.20
2023-05-01T04:20:29.884Z,10.20
2023-05-01T04:22:59.378Z,10.10
2023-05-01T04:25:27.981Z,10.20
2023-05-01T04:27:57.349Z,10.10
2023-05-01T04:30:25.432Z,10.10
2023-05-01T04:32:54.250Z,10.10
2023-05-01T04:35:22.588Z,10.10
2023-05-01T04:37:50.687Z,10.10
2023-05-01T04:40:20.242Z,10.10
2023-05-01T04:42:48.353Z,10.10
2023-05-01T04:45:16.615Z,10.10
2023-05-01T04:47:44.857Z,10.10
2023-05-01T04:50:12.961Z,10.20
2023-05-01T04:52:41.041Z,10.30
2023-05-01T04:55:10.446Z,10.30
2023-05-01T04:57:39.900Z,10.30
2023-05-01T05:00:09.171Z,10.40
2023-05-01T05:02:37.376Z,10.40
2023-05-01T05:05:05.824Z,10.50
2023-05-01T05:07:33.885Z,10.50
2023-05-01T05:10:01.964Z,10.50
2023-05-01T05:12:30.049Z,10.70
2023-05-01T05:14:59.774Z,10.70
2023-05-01T05:17:27.915Z,10.80
2023-05-01T05:19:56.182Z,10.90
2023-05-01T05:22:26.072Z,11.10
2023-05-01T05:24:55.772Z,11.00
2023-05-01T05:27:23.884Z,11.10
2023-05-01T05:29:52.070Z,11.00
2023-05-01T05:32:21.549Z,11.10
2023-05-01T05:34:49.799Z,11.00
2023-05-01T05:37:17.898Z,11.00
2023-05-01T05:39:46.027Z,11.10
2023-05-01T05:42:14.106Z,11.10
2023-05-01T05:44:42.244Z,11.20
2023-05-01T05:47:10.378Z,11.30
2023-05-01T05:49:39.873Z,11.40
2023-05-01T05:52:07.930Z,11.40
2023-05-01T05:54:36.046Z,11.40
2023-05-01T05:57:04.238Z,11.40
2023-05-01T05:59:32.528Z,11.50
2023-05-01T06:02:00.654Z,11.40
2023-05-01T06:04:28.780Z,11.30
2023-05-01T06:06:58.891Z,11.10
2023-05-01T06:09:27.097Z,11.00
2023-05-01T06:11:55.662Z,10.90
2023-05-01T06:14:23.770Z,10.90
2023-05-01T06:16:51.895Z,10.90
2023-05-01T06:19:20.005Z,10.90
2023-05-01T06:21:48.129Z,11.00
2023-05-01T06:24:17.617Z,11.10
2023-05-01T06:26:45.778Z,11.10
2023-05-01T06:29:13.821Z,11.10
2023-05-01T06:31:42.350Z,11.20
2023-05-01T06:34:10.644Z,11.40
2023-05-01T06:36:38.856Z,11.40
2023-05-01T06:39:07.009Z,11.60
2023-05-01T06:41:38.669Z,11.50
2023-05-01T06:44:06.802Z,11.60
2023-05-01T06:46:34.911Z,11.90
2023-05-01T06:49:03.266Z,12.00
2023-05-01T06:51:31.482Z,12.00
2023-05-01T06:53:59.692Z,11.90
2023-05-01T06:56:27.786Z,12.00
2023-05-01T06:58:57.261Z,12.00
2023-05-01T07:01:25.377Z,11.90
2023-05-01T07:03:53.745Z,11.90
2023-05-01T07:06:21.824Z,12.00
2023-05-01T07:08:51.759Z,12.10
2023-05-01T07:11:20.425Z,12.20
2023-05-01T07:13:48.525Z,12.40
2023-05-01T07:16:18.044Z,12.40
2023-05-01T07:18:46.237Z,12.40
2023-05-01T07:21:14.379Z,12.70
2023-05-01T07:23:42.501Z,13.10
2023-05-01T07:26:10.537Z,13.20
2023-05-01T07:28:38.890Z,13.10
2023-05-01T07:31:07.428Z,13.40
2023-05-01T07:33:36.926Z,13.80
2023-05-01T07:36:05.515Z,14.20
2023-05-01T07:38:33.621Z,14.70
2023-05-01T07:41:01.700Z,15.10
2023-05-01T07:43:29.838Z,14.90
2023-05-01T07:45:58.964Z,14.80
2023-05-01T07:52:09.075Z,14.80
2023-05-01T07:54:37.148Z,14.80
2023-05-01T07:57:07.888Z,14.90
2023-05-01T07:59:35.967Z,14.90
2023-05-01T08:02:04.075Z,14.90
2023-05-01T08:04:32.174Z,15.30
2023-05-01T08:07:00.463Z,15.50
2023-05-01T08:09:29.972Z,15.30
2023-05-01T08:11:58.005Z,15.50
2023-05-01T08:26:00.131Z,16.30
2023-05-01T08:28:28.277Z,16.80
2023-05-01T08:30:56.549Z,17.00
2023-05-01T08:33:24.604Z,17.00
2023-05-01T08:35:53.583Z,17.20
2023-05-01T08:38:21.650Z,17.40
2023-05-01T08:40:53.571Z,17.50
2023-05-01T08:43:24.258Z,17.60
2023-05-01T08:45:55.979Z,18.40
2023-05-01T08:48:27.035Z,18.70
2023-05-01T08:50:58.739Z,19.90
2023-05-01T08:53:27.918Z,20.70
2023-05-01T08:55:57.604Z,21.30
2023-05-01T08:58:30.144Z,21.70
2023-05-01T09:01:01.261Z,22.10
2023-05-01T09:03:32.407Z,22.30
2023-05-01T09:06:01.314Z,22.40
2023-05-01T09:08:29.428Z,23.60
2023-05-01T09:10:59.432Z,23.80
2023-05-01T09:13:28.999Z,23.70
2023-05-01T09:15:57.108Z,23.10
2023-05-01T09:18:25.395Z,24.30
2023-05-01T09:20:54.763Z,23.80
2023-05-01T09:23:22.897Z,24.00
2023-05-01T09:25:52.539Z,24.40
2023-05-01T09:28:20.664Z,24.00
2023-05-01T09:30:50.049Z,23.10
2023-05-01T09:33:18.171Z,22.30
2023-05-01T09:35:54.114Z,22.30
2023-05-01T09:38:23.913Z,22.40
2023-05-01T09:40:53.931Z,22.60
2023-05-01T09:43:28.986Z,22.20
2023-05-01T09:46:10.562Z,22.00
2023-05-01T09:48:40.155Z,22.80
2023-05-01T09:51:22.899Z,23.10
2023-05-01T09:53:52.358Z,23.50
2023-05-01T09:56:21.366Z,23.80
2023-05-01T09:58:51.161Z,23.50
2023-05-01T10:01:38.354Z,23.10
2023-05-01T10:04:07.015Z,22.40
2023-05-01T10:06:35.362Z,22.20
2023-05-01T10:09:06.915Z,22.10
2023-05-01T10:11:49.740Z,22.00
2023-05-01T10:14:17.912Z,22.20
2023-05-01T10:16:47.774Z,22.00
2023-05-01T10:19:18.160Z,21.90
2023-05-01T10:21:48.589Z,21.80
2023-05-01T10:24:18.761Z,22.10
2023-05-01T10:26:50.231Z,21.80
2023-05-01T10:29:20.593Z,21.70
2023-05-01T10:31:50.056Z,21.70
2023-05-01T10:34:21.083Z,21.60
2023-05-01T10:36:56.486Z,21.30
2023-05-01T10:39:34.914Z,20.90
2023-05-01T10:42:10.840Z,21.10
2023-05-01T10:44:39.481Z,21.10
2023-05-01T10:47:42.778Z,21.20
2023-05-01T10:50:13.314Z,21.00
2023-05-01T10:53:18.940Z,21.30
2023-05-01T10:55:49.336Z,21.40
2023-05-01T10:58:51.895Z,21.10
2023-05-01T11:01:31.558Z,21.10
2023-05-01T11:04:00.669Z,20.80
2023-05-01T11:06:30.317Z,20.40
2023-05-01T11:08:58.752Z,20.40
2023-05-01T11:11:51.828Z,21.00
2023-05-01T11:14:19.953Z,21.10
2023-05-01T11:16:49.397Z,21.10
2023-05-01T11:19:48.152Z,21.50
2023-05-01T11:22:18.482Z,21.30
2023-05-01T11:24:48.010Z,21.60
2023-05-01T11:27:16.945Z,21.70
2023-05-01T11:29:50.153Z,21.50
2023-05-01T11:32:21.053Z,21.50
2023-05-01T11:34:52.141Z,21.50
2023-05-01T11:37:21.979Z,21.10
2023-05-01T11:39:51.602Z,20.70
2023-05-01T11:42:23.663Z,21.00
2023-05-01T11:45:10.840Z,21.30
2023-05-01T11:47:39.267Z,21.30
2023-05-01T11:50:09.163Z,21.30
2023-05-01T11:52:46.701Z,21.40
2023-05-01T11:55:14.776Z,21.50
2023-05-01T11:57:49.772Z,21.40
2023-05-01T12:00:27.189Z,21.40
2023-05-01T12:03:03.342Z,21.20
2023-05-01T12:05:33.133Z,21.00
2023-05-01T12:08:11.392Z,21.20
2023-05-01T12:10:41.093Z,21.00
2023-05-01T12:13:11.357Z,21.20
2023-05-01T12:15:41.381Z,21.60
2023-05-01T12:18:10.081Z,21.90
2023-05-01T12:20:39.682Z,21.70
2023-05-01T12:23:10.956Z,21.70
2023-05-01T12:25:40.285Z,21.40
2023-05-01T12:28:13.103Z,21.40
2023-05-01T12:30:42.116Z,21.30
2023-05-01T12:33:12.812Z,20.60
2023-05-01T12:35:41.977Z,20.40
2023-05-01T12:38:16.541Z,20.40
2023-05-01T12:40:53.847Z,20.50
2023-05-01T12:43:24.168Z,20.60
2023-05-01T12:45:54.443Z,20.60
2023-05-01T12:48:22.946Z,20.40
2023-05-01T12:50:54.789Z,20.40
2023-05-01T12:53:25.486Z,20.10
2023-05-01T12:55:54.538Z,20.10
2023-05-01T12:58:22.731Z,20.10
2023-05-01T13:00:52.412Z,19.80
2023-05-01T13:03:25.640Z,20.00
2023-05-01T13:05:55.348Z,19.90
2023-05-01T13:08:32.620Z,19.60
2023-05-01T13:11:02.944Z,19.70
2023-05-01T13:13:32.915Z,19.90
2023-05-01T13:16:12.616Z,20.00
2023-05-01T13:18:45.492Z,19.90
2023-05-01T13:21:16.257Z,19.70
2023-05-01T13:23:54.083Z,19.80
2023-05-01T13:26:28.864Z,19.70
2023-05-01T13:28:58.659Z,19.80
2023-05-01T13:31:27.481Z,19.50
2023-05-01T13:33:56.859Z,19.80
2023-05-01T13:36:26.946Z,19.70
2023-05-01T13:38:57.606Z,19.70
2023-05-01T13:41:27.798Z,19.80
2023-05-01T13:43:57.627Z,19.80
2023-05-01T13:46:27.677Z,19.80
2023-05-01T13:48:56.365Z,19.80
2023-05-01T13:51:25.529Z,19.40
2023-05-01T13:53:54.543Z,19.30
2023-05-01T13:56:23.982Z,19.60
2023-05-01T13:58:52.186Z,19.80
2023-05-01T14:01:21.630Z,20.10
2023-05-01T14:03:50.760Z,19.50
2023-05-01T14:06:20.857Z,19.00
2023-05-01T14:08:49.952Z,18.80
2023-05-01T14:11:18.231Z,18.80
2023-05-01T14:13:49.668Z,18.90
2023-05-01T14:16:24.670Z,18.90
2023-05-01T14:18:55.358Z,18.90
2023-05-01T14:21:24.780Z,18.90
2023-05-01T14:23:54.057Z,19.00
2023-05-01T14:26:23.849Z,18.90
2023-05-01T14:28:54.679Z,18.80
2023-05-01T14:31:29.535Z,18.60
2023-05-01T14:33:59.537Z,18.60
2023-05-01T14:36:31.057Z,18.80
2023-05-01T14:39:00.367Z,18.80
2023-05-01T14:41:29.573Z,18.70
2023-05-01T14:43:59.182Z,18.60
2023-05-01T14:46:32.549Z,18.50
2023-05-01T14:49:01.956Z,18.50
2023-05-01T14:51:31.315Z,18.40
2023-05-01T14:53:59.658Z,18.50
2023-05-01T14:56:27.816Z,18.40
2023-05-01T14:58:56.008Z,18.30
2023-05-01T15:01:25.660Z,18.30
2023-05-01T15:03:54.346Z,18.40
2023-05-01T15:06:24.439Z,18.20
2023-05-01T15:08:52.632Z,18.10
2023-05-01T15:11:21.742Z,17.80
2023-05-01T15:13:50.558Z,17.60
2023-05-01T15:16:18.984Z,17.60
2023-05-01T15:18:48.559Z,17.80
2023-05-01T15:21:16.722Z,17.80
2023-05-01T15:23:46.246Z,17.70
2023-05-01T15:26:17.237Z,17.70
2023-05-01T15:28:46.769Z,17.60
2023-05-01T15:31:16.139Z,17.40
2023-05-01T15:33:45.083Z,17.70
2023-05-01T15:36:14.551Z,17.50
2023-05-01T15:38:42.656Z,17.50
2023-05-01T15:41:10.729Z,17.40
2023-05-01T15:43:38.942Z,17.40
2023-05-01T15:46:07.131Z,17.40
2023-05-01T15:48:35.392Z,17.30
2023-05-01T15:51:04.512Z,17.20
2023-05-01T15:53:34.040Z,17.10
2023-05-01T15:56:03.788Z,17.20
2023-05-01T15:58:31.921Z,16.90
2023-05-01T16:01:00.047Z,17.30
2023-05-01T16:03:30.452Z,17.40
2023-05-01T16:06:02.062Z,17.70
2023-05-01T16:08:32.281Z,17.90
2023-05-01T16:11:02.073Z,17.90
2023-05-01T16:13:30.283Z,17.90
2023-05-01T16:15:58.429Z,17.60
2023-05-01T16:18:26.748Z,17.70
2023-05-01T16:20:56.552Z,17.70
2023-05-01T16:23:26.572Z,17.80
2023-05-01T16:25:54.772Z,17.60
2023-05-01T16:28:25.849Z,17.60
2023-05-01T16:30:54.314Z,17.50
2023-05-01T16:33:23.924Z,17.40
2023-05-01T16:35:52.042Z,17.30
2023-05-01T16:38:20.936Z,17.40
2023-05-01T16:40:49.364Z,17.40
2023-05-01T16:43:17.792Z,17.30
2023-05-01T16:45:48.088Z,17.30
2023-05-01T16:48:25.504Z,17.40
2023-05-01T16:50:53.688Z,17.60
2023-05-01T16:53:23.005Z,17.50
2023-05-01T16:55:51.384Z,17.30
2023-05-01T16:58:19.570Z,17.10
2023-05-01T17:00:49.577Z,17.00
2023-05-01T17:03:18.012Z,17.00
2023-05-01T17:05:46.162Z,17.10
2023-05-01T17:08:14.273Z,17.10
2023-05-01T17:10:43.755Z,17.20
2023-05-01T17:13:14.508Z,17.20
2023-05-01T17:15:42.859Z,17.20
2023-05-01T17:18:12.453Z,17.10
2023-05-01T17:20:40.572Z,17.00
2023-05-01T17:23:09.751Z,16.80
2023-05-01T17:25:38.397Z,16.80
2023-05-01T17:28:06.642Z,16.70
2023-05-01T17:30:34.763Z,16.70
2023-05-01T17:33:03.018Z,16.70
2023-05-01T17:35:32.605Z,16.60
2023-05-01T17:38:00.786Z,16.60
2023-05-01T17:40:29.107Z,16.50
2023-05-01T17:42:57.202Z,16.60
2023-05-01T17:45:25.442Z,16.60
2023-05-01T17:47:54.020Z,16.50
2023-05-01T17:50:23.690Z,16.40
2023-05-01T17:52:56.699Z,16.40
2023-05-01T17:55:26.498Z,16.30
2023-05-01T17:57:55.573Z,16.10
2023-05-01T18:00:24.173Z,16.10
2023-05-01T18:02:52.505Z,16.10
2023-05-01T18:05:20.762Z,16.00
2023-05-01T18:07:48.955Z,15.90
2023-05-01T18:10:18.857Z,15.90
2023-05-01T18:12:49.740Z,15.80
2023-05-01T18:15:22.577Z,15.70
2023-05-01T18:17:54.268Z,15.60
2023-05-01T18:20:24.255Z,15.50
2023-05-01T18:22:53.305Z,15.50
2023-05-01T18:25:23.163Z,15.40
2023-05-01T18:27:51.217Z,15.40
2023-05-01T18:30:19.398Z,15.30
2023-05-01T18:32:48.822Z,15.20
2023-05-01T18:35:18.609Z,15.20
2023-05-01T18:37:47.250Z,15.20
2023-05-01T18:40:16.463Z,15.20
2023-05-01T18:42:46.020Z,15.20
2023-05-01T18:45:14.238Z,15.10
2023-05-01T18:47:42.513Z,15.20
2023-05-01T18:50:11.478Z,15.10
2023-05-01T18:52:39.661Z,15.00
2023-05-01T18:55:09.367Z,14.90
2023-05-01T18:57:37.511Z,14.90
2023-05-01T19:00:09.208Z,14.80
2023-05-01T19:02:37.790Z,14.80
2023-05-01T19:05:06.641Z,14.80
2023-05-01T19:07:34.811Z,14.80
2023-05-01T19:10:03.851Z,14.80
2023-05-01T19:12:32.504Z,14.80
2023-05-01T19:15:00.828Z,14.80
2023-05-01T19:17:30.402Z,14.80
2023-05-01T19:19:58.690Z,14.80
2023-05-01T19:22:27.299Z,14.70
2023-05-01T19:24:55.402Z,14.50
2023-05-01T19:27:25.447Z,14.40
2023-05-01T19:29:54.227Z,14.30
2023-05-01T19:32:23.042Z,14.20
2023-05-01T19:34:52.859Z,14.10
2023-05-01T19:37:21.026Z,14.00
2023-05-01T19:39:49.187Z,13.90
2023-05-01T19:42:17.285Z,13.80
2023-05-01T19:44:45.369Z,13.80
2023-05-01T19:47:13.433Z,13.70
2023-05-01T19:49:41.489Z,13.70
2023-05-01T19:52:11.360Z,13.60
2023-05-01T19:54:39.435Z,13.60
2023-05-01T19:57:07.561Z,13.50
2023-05-01T19:59:38.777Z,13.50
2023-05-01T20:02:07.323Z,13.50
2023-05-01T20:04:36.241Z,13.50
2023-05-01T20:07:04.760Z,13.50
2023-05-01T20:09:34.277Z,13.60
2023-05-01T20:12:04.725Z,13.60
2023-05-01T20:14:34.238Z,13.60
2023-05-01T20:17:02.461Z,13.60
2023-05-01T20:19:31.366Z,13.60
2023-05-01T20:21:59.436Z,13.50
2023-05-01T20:24:27.717Z,13.40
2023-05-01T20:26:59.329Z,13.40
2023-05-01T20:29:28.117Z,13.30
2023-05-01T20:31:56.371Z,13.20
2023-05-01T20:34:25.166Z,13.10
2023-05-01T20:36:53.281Z,13.00
2023-05-01T20:39:21.426Z,12.90
2023-05-01T20:41:49.552Z,12.80
2023-05-01T20:44:19.476Z,12.70
2023-05-01T20:46:48.725Z,12.70
2023-05-01T20:49:16.892Z,12.60
2023-05-01T20:51:45.034Z,12.60
2023-05-01T20:54:14.797Z,12.50
2023-05-01T20:56:42.862Z,12.50
2023-05-01T20:59:11.242Z,12.40
2023-05-01T21:01:40.876Z,12.30
2023-05-01T21:04:09.258Z,12.30
2023-05-01T21:06:37.634Z,12.30
2023-05-01T21:09:06.274Z,12.20
2023-05-01T21:11:34.401Z,12.10
2023-05-01T21:14:02.962Z,12.10
2023-05-01T21:16:31.151Z,12.10
2023-05-01T21:19:00.977Z,12.00
2023-05-01T21:21:29.214Z,12.00
2023-05-01T21:23:57.354Z,11.90
2023-05-01T21:26:25.759Z,11.80
2023-05-01T21:28:53.945Z,11.80
2023-05-01T21:31:22.967Z,11.80
2023-05-01T21:33:51.172Z,11.70
2023-05-01T21:36:20.833Z,11.70
2023-05-01T21:38:49.108Z,11.60
2023-05-01T21:41:17.466Z,11.60
2023-05-01T21:43:46.050Z,11.50
2023-05-01T21:46:17.450Z,11.50
2023-05-01T21:48:50.560Z,11.40
2023-05-01T21:51:26.184Z,11.40
2023-05-01T21:53:54.399Z,11.40
2023-05-01T21:56:23.339Z,11.30
2023-05-01T21:58:51.633Z,11.30
2023-05-01T22:01:20.408Z,11.30
2023-05-01T22:03:49.879Z,11.20
2023-05-01T22:06:18.214Z,11.10
2023-05-01T22:08:47.795Z,11.10
2023-05-01T22:11:15.941Z,11.10
2023-05-01T22:13:44.016Z,11.10
2023-05-01T22:23:55.663Z,10.90
2023-05-01T22:26:23.940Z,10.90
2023-05-01T22:28:52.853Z,11.00
2023-05-01T22:31:21.361Z,11.00
2023-05-01T22:33:49.554Z,11.20
2023-05-01T22:36:17.674Z,11.20
2023-05-01T22:38:46.240Z,11.30
2023-05-01T22:41:16.149Z,11.40
2023-05-01T22:43:44.215Z,11.50
2023-05-01T22:46:12.322Z,11.50
2023-05-01T22:48:40.389Z,11.50
2023-05-01T22:51:08.507Z,11.50
2023-05-01T22:53:38.945Z,11.50
2023-05-01T22:56:07.772Z,11.50
2023-05-01T22:58:37.290Z,11.50
2023-05-01T23:01:05.469Z,11.60
2023-05-01T23:03:35.720Z,11.60
2023-05-01T23:06:06.420Z,11.60
2023-05-01T23:08:34.695Z,11.60
2023-05-01T23:11:02.916Z,11.50
2023-05-01T23:13:32.269Z,11.60
2023-05-01T23:16:01.742Z,11.60
2023-05-01T23:18:32.911Z,11.60
2023-05-01T23:21:00.993Z,11.60
2023-05-01T23:23:32.013Z,11.60
2023-05-01T23:26:00.102Z,11.50
2023-05-01T23:28:29.350Z,11.50
2023-05-01T23:30:59.666Z,11.40
2023-05-01T23:33:34.609Z,11.50
2023-05-01T23:36:02.798Z,11.50
2023-05-01T23:38:31.381Z,11.50
2023-05-01T23:40:59.651Z,11.50
2023-05-01T23:43:27.829Z,11.50
2023-05-01T23:45:55.955Z,11.50
2023-05-01T23:48:24.118Z,11.60
2023-05-01T23:50:53.720Z,11.50
2023-05-01T23:53:22.104Z,11.40
2023-05-01T23:55:50.209Z,11.40
2023-05-01T23:58:18.260Z,11.30
